sensor_id;sensor_type;location;lat;lon;timestamp;P1;durP1;ratioP1;P2;durP2;ratioP2
45848;SDS011;31567;54.600;9.842;2024-03-25T00:01:25;2.30;;;2.10;;
45848;SDS011;31567;54.600;9.842;2024-03-25T00:05:05;3.30;;;1.83;;
45848;SDS011;31567;54.600;9.842;2024-03-25T00:08:49;2.50;;;1.85;;
45848;SDS011;31567;54.600;9.842;2024-03-25T00:12:29;3.13;;;1.98;;
45848;SDS011;31567;54.600;9.842;2024-03-25T00:16:08;3.72;;;2.28;;
45848;SDS011;31567;54.600;9.842;2024-03-25T00:19:48;2.53;;;2.03;;
45848;SDS011;31567;54.600;9.842;2024-03-25T00:23:31;3.83;;;2.50;;
45848;SDS011;31567;54.600;9.842;2024-03-25T00:27:10;3.63;;;2.67;;
45848;SDS011;31567;54.600;9.842;2024-03-25T00:30:50;4.97;;;3.60;;
45848;SDS011;31567;54.600;9.842;2024-03-25T00:34:29;4.28;;;3.13;;
45848;SDS011;31567;54.600;9.842;2024-03-25T00:38:09;6.00;;;3.42;;
45848;SDS011;31567;54.600;9.842;2024-03-25T00:41:48;3.88;;;3.08;;
45848;SDS011;31567;54.600;9.842;2024-03-25T00:45:28;7.25;;;3.03;;
45848;SDS011;31567;54.600;9.842;2024-03-25T00:49:09;4.60;;;3.40;;
45848;SDS011;31567;54.600;9.842;2024-03-25T00:52:49;6.13;;;2.83;;
45848;SDS011;31567;54.600;9.842;2024-03-25T00:56:29;5.82;;;3.22;;
45848;SDS011;31567;54.600;9.842;2024-03-25T01:00:10;6.35;;;3.33;;
45848;SDS011;31567;54.600;9.842;2024-03-25T01:03:50;4.90;;;3.33;;
45848;SDS011;31567;54.600;9.842;2024-03-25T01:07:29;4.20;;;2.80;;
45848;SDS011;31567;54.600;9.842;2024-03-25T01:11:09;4.57;;;2.85;;
45848;SDS011;31567;54.600;9.842;2024-03-25T01:14:49;6.63;;;3.25;;
45848;SDS011;31567;54.600;9.842;2024-03-25T01:18:28;4.63;;;2.78;;
45848;SDS011;31567;54.600;9.842;2024-03-25T01:22:08;4.85;;;2.58;;
45848;SDS011;31567;54.600;9.842;2024-03-25T01:25:48;4.88;;;2.45;;
45848;SDS011;31567;54.600;9.842;2024-03-25T01:29:27;4.80;;;2.70;;
45848;SDS011;31567;54.600;9.842;2024-03-25T01:33:07;4.40;;;2.63;;
45848;SDS011;31567;54.600;9.842;2024-03-25T01:36:46;7.35;;;4.07;;
45848;SDS011;31567;54.600;9.842;2024-03-25T01:40:26;7.32;;;3.78;;
45848;SDS011;31567;54.600;9.842;2024-03-25T01:44:05;6.25;;;3.22;;
45848;SDS011;31567;54.600;9.842;2024-03-25T01:47:45;6.93;;;3.80;;
45848;SDS011;31567;54.600;9.842;2024-03-25T01:51:25;6.90;;;3.63;;
45848;SDS011;31567;54.600;9.842;2024-03-25T01:55:05;7.82;;;3.30;;
45848;SDS011;31567;54.600;9.842;2024-03-25T01:58:47;7.22;;;3.05;;
45848;SDS011;31567;54.600;9.842;2024-03-25T02:02:27;6.03;;;3.15;;
45848;SDS011;31567;54.600;9.842;2024-03-25T02:06:09;10.60;;;3.55;;
45848;SDS011;31567;54.600;9.842;2024-03-25T02:09:52;8.43;;;3.38;;
45848;SDS011;31567;54.600;9.842;2024-03-25T02:13:32;6.82;;;3.60;;
45848;SDS011;31567;54.600;9.842;2024-03-25T02:17:11;7.15;;;4.07;;
45848;SDS011;31567;54.600;9.842;2024-03-25T02:20:51;9.65;;;4.18;;
45848;SDS011;31567;54.600;9.842;2024-03-25T02:24:30;6.93;;;4.05;;
45848;SDS011;31567;54.600;9.842;2024-03-25T02:28:12;6.57;;;3.95;;
45848;SDS011;31567;54.600;9.842;2024-03-25T02:31:51;8.15;;;4.85;;
45848;SDS011;31567;54.600;9.842;2024-03-25T02:35:32;8.40;;;4.80;;
45848;SDS011;31567;54.600;9.842;2024-03-25T02:39:13;10.02;;;4.13;;
45848;SDS011;31567;54.600;9.842;2024-03-25T02:42:52;8.50;;;3.47;;
45848;SDS011;31567;54.600;9.842;2024-03-25T02:46:32;5.72;;;3.38;;
45848;SDS011;31567;54.600;9.842;2024-03-25T02:50:12;6.28;;;3.45;;
45848;SDS011;31567;54.600;9.842;2024-03-25T02:53:52;4.85;;;3.08;;
45848;SDS011;31567;54.600;9.842;2024-03-25T02:57:31;4.72;;;3.22;;
45848;SDS011;31567;54.600;9.842;2024-03-25T03:01:11;7.25;;;3.20;;
45848;SDS011;31567;54.600;9.842;2024-03-25T03:04:51;5.82;;;3.67;;
45848;SDS011;31567;54.600;9.842;2024-03-25T03:08:30;6.40;;;3.20;;
45848;SDS011;31567;54.600;9.842;2024-03-25T03:12:10;5.75;;;3.60;;
45848;SDS011;31567;54.600;9.842;2024-03-25T03:15:49;6.47;;;3.45;;
45848;SDS011;31567;54.600;9.842;2024-03-25T03:19:29;3.17;;;2.33;;
45848;SDS011;31567;54.600;9.842;2024-03-25T03:23:08;6.55;;;2.35;;
45848;SDS011;31567;54.600;9.842;2024-03-25T03:26:48;4.95;;;2.50;;
45848;SDS011;31567;54.600;9.842;2024-03-25T03:30:28;3.33;;;2.45;;
45848;SDS011;31567;54.600;9.842;2024-03-25T03:34:08;6.57;;;2.38;;
45848;SDS011;31567;54.600;9.842;2024-03-25T03:37:47;4.45;;;2.00;;
45848;SDS011;31567;54.600;9.842;2024-03-25T03:41:27;3.25;;;1.80;;
45848;SDS011;31567;54.600;9.842;2024-03-25T03:45:07;4.53;;;1.50;;
45848;SDS011;31567;54.600;9.842;2024-03-25T03:48:47;3.15;;;1.55;;
45848;SDS011;31567;54.600;9.842;2024-03-25T03:52:26;3.47;;;1.88;;
45848;SDS011;31567;54.600;9.842;2024-03-25T03:56:06;4.88;;;1.70;;
45848;SDS011;31567;54.600;9.842;2024-03-25T03:59:45;2.35;;;1.45;;
45848;SDS011;31567;54.600;9.842;2024-03-25T04:03:25;3.22;;;1.52;;
45848;SDS011;31567;54.600;9.842;2024-03-25T04:07:05;3.35;;;1.30;;
45848;SDS011;31567;54.600;9.842;2024-03-25T04:10:45;3.65;;;1.65;;
45848;SDS011;31567;54.600;9.842;2024-03-25T04:14:24;2.53;;;1.33;;
45848;SDS011;31567;54.600;9.842;2024-03-25T04:18:04;2.92;;;1.40;;
45848;SDS011;31567;54.600;9.842;2024-03-25T04:21:44;3.60;;;1.75;;
45848;SDS011;31567;54.600;9.842;2024-03-25T04:25:23;5.13;;;1.88;;
45848;SDS011;31567;54.600;9.842;2024-03-25T04:29:03;2.90;;;1.63;;
45848;SDS011;31567;54.600;9.842;2024-03-25T04:32:42;4.63;;;1.92;;
45848;SDS011;31567;54.600;9.842;2024-03-25T04:36:22;6.15;;;2.88;;
45848;SDS011;31567;54.600;9.842;2024-03-25T04:40:02;1.60;;;1.40;;
45848;SDS011;31567;54.600;9.842;2024-03-25T04:43:42;1.73;;;1.20;;
45848;SDS011;31567;54.600;9.842;2024-03-25T04:47:21;3.15;;;1.38;;
45848;SDS011;31567;54.600;9.842;2024-03-25T04:51:01;2.75;;;1.40;;
45848;SDS011;31567;54.600;9.842;2024-03-25T04:54:40;1.85;;;1.67;;
45848;SDS011;31567;54.600;9.842;2024-03-25T04:58:20;2.50;;;1.35;;
45848;SDS011;31567;54.600;9.842;2024-03-25T05:02:00;2.33;;;1.38;;
45848;SDS011;31567;54.600;9.842;2024-03-25T05:05:39;1.70;;;1.25;;
45848;SDS011;31567;54.600;9.842;2024-03-25T05:09:19;1.77;;;1.50;;
45848;SDS011;31567;54.600;9.842;2024-03-25T05:12:59;2.67;;;1.70;;
45848;SDS011;31567;54.600;9.842;2024-03-25T05:16:39;3.33;;;1.70;;
45848;SDS011;31567;54.600;9.842;2024-03-25T05:20:18;4.65;;;1.60;;
45848;SDS011;31567;54.600;9.842;2024-03-25T05:23:58;3.60;;;1.77;;
45848;SDS011;31567;54.600;9.842;2024-03-25T05:27:38;5.10;;;2.15;;
45848;SDS011;31567;54.600;9.842;2024-03-25T05:31:17;2.97;;;1.73;;
45848;SDS011;31567;54.600;9.842;2024-03-25T05:34:57;3.80;;;1.70;;
45848;SDS011;31567;54.600;9.842;2024-03-25T05:38:36;3.50;;;2.05;;
45848;SDS011;31567;54.600;9.842;2024-03-25T05:42:16;3.30;;;1.60;;
45848;SDS011;31567;54.600;9.842;2024-03-25T05:45:56;2.55;;;1.40;;
45848;SDS011;31567;54.600;9.842;2024-03-25T05:49:36;3.08;;;2.00;;
45848;SDS011;31567;54.600;9.842;2024-03-25T05:53:15;4.25;;;2.10;;
45848;SDS011;31567;54.600;9.842;2024-03-25T05:56:55;3.55;;;1.77;;
45848;SDS011;31567;54.600;9.842;2024-03-25T06:00:35;4.40;;;1.77;;
45848;SDS011;31567;54.600;9.842;2024-03-25T06:04:14;3.30;;;1.73;;
45848;SDS011;31567;54.600;9.842;2024-03-25T06:07:54;5.50;;;1.73;;
45848;SDS011;31567;54.600;9.842;2024-03-25T06:11:33;5.32;;;1.73;;
45848;SDS011;31567;54.600;9.842;2024-03-25T06:15:13;3.72;;;1.65;;
45848;SDS011;31567;54.600;9.842;2024-03-25T06:18:53;3.03;;;1.92;;
45848;SDS011;31567;54.600;9.842;2024-03-25T06:22:32;4.30;;;1.65;;
45848;SDS011;31567;54.600;9.842;2024-03-25T06:26:12;3.22;;;1.90;;
45848;SDS011;31567;54.600;9.842;2024-03-25T06:29:51;4.78;;;1.35;;
45848;SDS011;31567;54.600;9.842;2024-03-25T06:33:51;5.72;;;2.00;;
45848;SDS011;31567;54.600;9.842;2024-03-25T06:37:49;5.78;;;2.10;;
45848;SDS011;31567;54.600;9.842;2024-03-25T06:41:28;2.97;;;1.77;;
45848;SDS011;31567;54.600;9.842;2024-03-25T06:45:08;7.03;;;1.90;;
45848;SDS011;31567;54.600;9.842;2024-03-25T06:48:48;6.43;;;1.98;;
45848;SDS011;31567;54.600;9.842;2024-03-25T06:52:28;4.45;;;2.00;;
45848;SDS011;31567;54.600;9.842;2024-03-25T06:56:07;3.25;;;2.33;;
45848;SDS011;31567;54.600;9.842;2024-03-25T06:59:47;4.40;;;1.77;;
45848;SDS011;31567;54.600;9.842;2024-03-25T07:03:27;4.72;;;1.63;;
45848;SDS011;31567;54.600;9.842;2024-03-25T07:07:07;3.72;;;1.40;;
45848;SDS011;31567;54.600;9.842;2024-03-25T07:10:47;4.18;;;1.63;;
45848;SDS011;31567;54.600;9.842;2024-03-25T07:14:27;2.97;;;1.40;;
45848;SDS011;31567;54.600;9.842;2024-03-25T07:18:07;7.00;;;1.80;;
45848;SDS011;31567;54.600;9.842;2024-03-25T07:21:49;4.68;;;1.45;;
45848;SDS011;31567;54.600;9.842;2024-03-25T07:25:28;3.70;;;1.30;;
45848;SDS011;31567;54.600;9.842;2024-03-25T07:29:08;2.88;;;1.40;;
45848;SDS011;31567;54.600;9.842;2024-03-25T07:32:51;3.38;;;1.30;;
45848;SDS011;31567;54.600;9.842;2024-03-25T07:36:31;2.55;;;1.52;;
45848;SDS011;31567;54.600;9.842;2024-03-25T07:40:14;3.88;;;1.33;;
45848;SDS011;31567;54.600;9.842;2024-03-25T07:43:53;7.60;;;2.00;;
45848;SDS011;31567;54.600;9.842;2024-03-25T07:47:33;3.85;;;1.30;;
45848;SDS011;31567;54.600;9.842;2024-03-25T07:51:13;6.57;;;1.42;;
45848;SDS011;31567;54.600;9.842;2024-03-25T07:54:53;5.07;;;1.58;;
45848;SDS011;31567;54.600;9.842;2024-03-25T07:58:33;6.90;;;1.40;;
45848;SDS011;31567;54.600;9.842;2024-03-25T08:02:13;8.25;;;1.70;;
45848;SDS011;31567;54.600;9.842;2024-03-25T08:05:52;5.75;;;1.05;;
45848;SDS011;31567;54.600;9.842;2024-03-25T08:09:32;4.03;;;1.40;;
45848;SDS011;31567;54.600;9.842;2024-03-25T08:13:12;10.02;;;1.60;;
45848;SDS011;31567;54.600;9.842;2024-03-25T08:16:51;4.85;;;1.10;;
45848;SDS011;31567;54.600;9.842;2024-03-25T08:20:31;6.70;;;1.58;;
45848;SDS011;31567;54.600;9.842;2024-03-25T08:24:11;6.43;;;1.48;;
45848;SDS011;31567;54.600;9.842;2024-03-25T08:27:52;8.85;;;2.70;;
45848;SDS011;31567;54.600;9.842;2024-03-25T08:31:32;8.48;;;1.52;;
45848;SDS011;31567;54.600;9.842;2024-03-25T08:35:12;5.63;;;1.23;;
45848;SDS011;31567;54.600;9.842;2024-03-25T08:38:52;7.20;;;1.45;;
45848;SDS011;31567;54.600;9.842;2024-03-25T08:42:31;5.60;;;1.98;;
45848;SDS011;31567;54.600;9.842;2024-03-25T08:46:11;2.47;;;1.13;;
45848;SDS011;31567;54.600;9.842;2024-03-25T08:49:51;8.60;;;1.40;;
45848;SDS011;31567;54.600;9.842;2024-03-25T08:53:30;7.13;;;1.67;;
45848;SDS011;31567;54.600;9.842;2024-03-25T08:57:10;6.88;;;1.58;;
45848;SDS011;31567;54.600;9.842;2024-03-25T09:00:50;6.80;;;1.50;;
45848;SDS011;31567;54.600;9.842;2024-03-25T09:04:30;8.43;;;1.48;;
45848;SDS011;31567;54.600;9.842;2024-03-25T09:08:09;7.00;;;1.85;;
45848;SDS011;31567;54.600;9.842;2024-03-25T09:11:52;4.38;;;1.40;;
45848;SDS011;31567;54.600;9.842;2024-03-25T09:15:31;6.82;;;1.80;;
45848;SDS011;31567;54.600;9.842;2024-03-25T09:19:11;7.55;;;1.55;;
45848;SDS011;31567;54.600;9.842;2024-03-25T09:22:50;6.20;;;1.30;;
45848;SDS011;31567;54.600;9.842;2024-03-25T09:26:30;9.45;;;1.63;;
45848;SDS011;31567;54.600;9.842;2024-03-25T09:30:10;8.73;;;1.77;;
45848;SDS011;31567;54.600;9.842;2024-03-25T09:33:49;10.93;;;1.50;;
45848;SDS011;31567;54.600;9.842;2024-03-25T09:37:29;5.57;;;1.73;;
45848;SDS011;31567;54.600;9.842;2024-03-25T09:41:10;6.18;;;2.22;;
45848;SDS011;31567;54.600;9.842;2024-03-25T09:44:50;7.47;;;1.55;;
45848;SDS011;31567;54.600;9.842;2024-03-25T09:48:30;10.25;;;1.63;;
45848;SDS011;31567;54.600;9.842;2024-03-25T09:52:10;7.82;;;1.80;;
45848;SDS011;31567;54.600;9.842;2024-03-25T09:55:50;5.25;;;1.95;;
45848;SDS011;31567;54.600;9.842;2024-03-25T09:59:30;6.43;;;1.45;;
45848;SDS011;31567;54.600;9.842;2024-03-25T10:03:09;4.57;;;1.30;;
45848;SDS011;31567;54.600;9.842;2024-03-25T10:06:49;3.90;;;1.65;;
45848;SDS011;31567;54.600;9.842;2024-03-25T10:10:29;10.50;;;1.83;;
45848;SDS011;31567;54.600;9.842;2024-03-25T10:14:09;9.20;;;2.10;;
45848;SDS011;31567;54.600;9.842;2024-03-25T10:17:49;8.20;;;1.60;;
45848;SDS011;31567;54.600;9.842;2024-03-25T10:21:31;7.82;;;2.10;;
45848;SDS011;31567;54.600;9.842;2024-03-25T10:25:23;6.25;;;1.90;;
45848;SDS011;31567;54.600;9.842;2024-03-25T10:29:05;4.13;;;1.60;;
45848;SDS011;31567;54.600;9.842;2024-03-25T10:36:38;9.57;;;1.67;;
45848;SDS011;31567;54.600;9.842;2024-03-25T10:40:18;4.75;;;1.63;;
45848;SDS011;31567;54.600;9.842;2024-03-25T10:43:58;2.92;;;1.45;;
45848;SDS011;31567;54.600;9.842;2024-03-25T10:47:41;4.07;;;0.90;;
45848;SDS011;31567;54.600;9.842;2024-03-25T10:51:21;4.22;;;1.05;;
45848;SDS011;31567;54.600;9.842;2024-03-25T10:55:02;2.00;;;0.60;;
45848;SDS011;31567;54.600;9.842;2024-03-25T10:58:42;2.92;;;0.75;;
45848;SDS011;31567;54.600;9.842;2024-03-25T11:02:23;6.35;;;1.25;;
45848;SDS011;31567;54.600;9.842;2024-03-25T11:06:03;3.58;;;1.17;;
45848;SDS011;31567;54.600;9.842;2024-03-25T11:09:43;5.53;;;1.38;;
45848;SDS011;31567;54.600;9.842;2024-03-25T11:13:22;3.88;;;0.82;;
45848;SDS011;31567;54.600;9.842;2024-03-25T11:17:02;6.60;;;1.10;;
45848;SDS011;31567;54.600;9.842;2024-03-25T11:21:02;4.30;;;1.08;;
45848;SDS011;31567;54.600;9.842;2024-03-25T11:24:52;4.85;;;0.85;;
45848;SDS011;31567;54.600;9.842;2024-03-25T11:28:34;5.85;;;1.15;;
45848;SDS011;31567;54.600;9.842;2024-03-25T11:32:13;8.80;;;1.13;;
45848;SDS011;31567;54.600;9.842;2024-03-25T11:35:54;8.40;;;1.48;;
45848;SDS011;31567;54.600;9.842;2024-03-25T11:39:33;5.13;;;0.93;;
45848;SDS011;31567;54.600;9.842;2024-03-25T11:43:19;6.07;;;0.90;;
45848;SDS011;31567;54.600;9.842;2024-03-25T11:47:01;4.90;;;0.90;;
45848;SDS011;31567;54.600;9.842;2024-03-25T11:50:40;8.18;;;1.48;;
45848;SDS011;31567;54.600;9.842;2024-03-25T11:54:20;7.35;;;1.23;;
45848;SDS011;31567;54.600;9.842;2024-03-25T11:58:00;5.68;;;0.88;;
45848;SDS011;31567;54.600;9.842;2024-03-25T12:01:40;3.45;;;0.95;;
45848;SDS011;31567;54.600;9.842;2024-03-25T12:05:19;4.57;;;0.73;;
45848;SDS011;31567;54.600;9.842;2024-03-25T12:08:59;3.42;;;0.77;;
45848;SDS011;31567;54.600;9.842;2024-03-25T12:12:58;4.43;;;0.80;;
45848;SDS011;31567;54.600;9.842;2024-03-25T12:16:37;3.83;;;1.00;;
45848;SDS011;31567;54.600;9.842;2024-03-25T12:20:17;6.00;;;0.93;;
45848;SDS011;31567;54.600;9.842;2024-03-25T12:23:56;3.85;;;0.77;;
45848;SDS011;31567;54.600;9.842;2024-03-25T12:27:38;5.55;;;1.10;;
45848;SDS011;31567;54.600;9.842;2024-03-25T12:31:19;4.65;;;1.38;;
45848;SDS011;31567;54.600;9.842;2024-03-25T12:35:03;5.32;;;0.80;;
45848;SDS011;31567;54.600;9.842;2024-03-25T12:38:55;6.95;;;0.90;;
45848;SDS011;31567;54.600;9.842;2024-03-25T12:42:36;4.03;;;1.00;;
45848;SDS011;31567;54.600;9.842;2024-03-25T12:46:18;7.93;;;1.13;;
45848;SDS011;31567;54.600;9.842;2024-03-25T12:49:57;7.93;;;1.00;;
45848;SDS011;31567;54.600;9.842;2024-03-25T12:53:37;8.07;;;1.63;;
45848;SDS011;31567;54.600;9.842;2024-03-25T12:57:17;5.15;;;1.15;;
45848;SDS011;31567;54.600;9.842;2024-03-25T13:00:57;4.95;;;1.00;;
45848;SDS011;31567;54.600;9.842;2024-03-25T13:04:38;5.60;;;1.00;;
45848;SDS011;31567;54.600;9.842;2024-03-25T13:08:20;6.35;;;1.38;;
45848;SDS011;31567;54.600;9.842;2024-03-25T13:12:00;6.10;;;1.15;;
45848;SDS011;31567;54.600;9.842;2024-03-25T13:15:39;5.93;;;1.08;;
45848;SDS011;31567;54.600;9.842;2024-03-25T13:19:19;9.05;;;2.10;;
45848;SDS011;31567;54.600;9.842;2024-03-25T13:22:59;7.43;;;1.45;;
45848;SDS011;31567;54.600;9.842;2024-03-25T13:26:38;4.75;;;1.00;;
45848;SDS011;31567;54.600;9.842;2024-03-25T13:30:18;8.68;;;1.27;;
45848;SDS011;31567;54.600;9.842;2024-03-25T13:33:58;7.60;;;0.80;;
45848;SDS011;31567;54.600;9.842;2024-03-25T13:37:57;3.60;;;1.08;;
45848;SDS011;31567;54.600;9.842;2024-03-25T13:41:36;4.78;;;0.80;;
45848;SDS011;31567;54.600;9.842;2024-03-25T13:45:16;4.20;;;1.50;;
45848;SDS011;31567;54.600;9.842;2024-03-25T13:48:55;3.92;;;1.20;;
45848;SDS011;31567;54.600;9.842;2024-03-25T13:52:35;8.27;;;1.00;;
45848;SDS011;31567;54.600;9.842;2024-03-25T13:56:14;2.10;;;0.40;;
45848;SDS011;31567;54.600;9.842;2024-03-25T13:59:54;3.58;;;0.82;;
45848;SDS011;31567;54.600;9.842;2024-03-25T14:03:33;6.95;;;1.00;;
45848;SDS011;31567;54.600;9.842;2024-03-25T14:07:13;5.80;;;1.30;;
45848;SDS011;31567;54.600;9.842;2024-03-25T14:10:59;5.47;;;0.88;;
45848;SDS011;31567;54.600;9.842;2024-03-25T14:14:40;3.08;;;0.70;;
45848;SDS011;31567;54.600;9.842;2024-03-25T14:18:20;3.60;;;0.80;;
45848;SDS011;31567;54.600;9.842;2024-03-25T14:21:59;3.00;;;0.60;;
45848;SDS011;31567;54.600;9.842;2024-03-25T14:25:40;6.20;;;0.90;;
45848;SDS011;31567;54.600;9.842;2024-03-25T14:29:19;9.00;;;1.00;;
45848;SDS011;31567;54.600;9.842;2024-03-25T14:32:59;6.18;;;0.80;;
45848;SDS011;31567;54.600;9.842;2024-03-25T14:36:38;4.05;;;0.93;;
45848;SDS011;31567;54.600;9.842;2024-03-25T14:40:18;4.60;;;0.70;;
45848;SDS011;31567;54.600;9.842;2024-03-25T14:43:57;8.25;;;1.17;;
45848;SDS011;31567;54.600;9.842;2024-03-25T14:47:37;2.38;;;0.75;;
45848;SDS011;31567;54.600;9.842;2024-03-25T14:51:16;6.63;;;0.80;;
45848;SDS011;31567;54.600;9.842;2024-03-25T14:54:56;4.57;;;0.80;;
45848;SDS011;31567;54.600;9.842;2024-03-25T14:58:36;3.97;;;0.70;;
45848;SDS011;31567;54.600;9.842;2024-03-25T15:02:16;3.38;;;0.47;;
45848;SDS011;31567;54.600;9.842;2024-03-25T15:05:55;4.72;;;0.80;;
45848;SDS011;31567;54.600;9.842;2024-03-25T15:09:35;2.67;;;0.60;;
45848;SDS011;31567;54.600;9.842;2024-03-25T15:13:14;6.22;;;0.95;;
45848;SDS011;31567;54.600;9.842;2024-03-25T15:16:54;5.30;;;0.93;;
45848;SDS011;31567;54.600;9.842;2024-03-25T15:20:34;2.85;;;0.77;;
45848;SDS011;31567;54.600;9.842;2024-03-25T15:24:13;5.07;;;0.98;;
45848;SDS011;31567;54.600;9.842;2024-03-25T15:27:53;4.07;;;1.35;;
45848;SDS011;31567;54.600;9.842;2024-03-25T15:31:32;5.30;;;0.73;;
45848;SDS011;31567;54.600;9.842;2024-03-25T15:35:12;4.43;;;0.73;;
45848;SDS011;31567;54.600;9.842;2024-03-25T15:38:52;4.20;;;0.70;;
45848;SDS011;31567;54.600;9.842;2024-03-25T15:42:33;5.57;;;1.15;;
45848;SDS011;31567;54.600;9.842;2024-03-25T15:46:13;3.83;;;0.77;;
45848;SDS011;31567;54.600;9.842;2024-03-25T15:49:52;5.78;;;1.40;;
45848;SDS011;31567;54.600;9.842;2024-03-25T15:53:32;6.43;;;1.08;;
45848;SDS011;31567;54.600;9.842;2024-03-25T15:57:11;5.22;;;1.10;;
45848;SDS011;31567;54.600;9.842;2024-03-25T16:00:51;4.22;;;1.08;;
45848;SDS011;31567;54.600;9.842;2024-03-25T16:04:30;5.28;;;1.10;;
45848;SDS011;31567;54.600;9.842;2024-03-25T16:08:10;4.45;;;1.10;;
45848;SDS011;31567;54.600;9.842;2024-03-25T16:11:49;8.43;;;1.60;;
45848;SDS011;31567;54.600;9.842;2024-03-25T16:15:29;8.00;;;0.98;;
45848;SDS011;31567;54.600;9.842;2024-03-25T16:19:12;5.40;;;0.80;;
45848;SDS011;31567;54.600;9.842;2024-03-25T16:22:52;5.18;;;1.35;;
45848;SDS011;31567;54.600;9.842;2024-03-25T16:26:31;2.10;;;0.70;;
45848;SDS011;31567;54.600;9.842;2024-03-25T16:30:11;5.90;;;1.48;;
45848;SDS011;31567;54.600;9.842;2024-03-25T16:33:51;3.95;;;1.08;;
45848;SDS011;31567;54.600;9.842;2024-03-25T16:37:30;5.82;;;0.93;;
45848;SDS011;31567;54.600;9.842;2024-03-25T16:41:10;3.25;;;0.68;;
45848;SDS011;31567;54.600;9.842;2024-03-25T16:44:50;5.38;;;0.98;;
45848;SDS011;31567;54.600;9.842;2024-03-25T16:48:29;4.13;;;0.70;;
45848;SDS011;31567;54.600;9.842;2024-03-25T16:52:09;4.90;;;1.30;;
45848;SDS011;31567;54.600;9.842;2024-03-25T16:55:49;6.88;;;1.65;;
45848;SDS011;31567;54.600;9.842;2024-03-25T16:59:29;4.03;;;1.13;;
45848;SDS011;31567;54.600;9.842;2024-03-25T17:03:08;6.63;;;1.38;;
45848;SDS011;31567;54.600;9.842;2024-03-25T17:06:48;2.67;;;0.90;;
45848;SDS011;31567;54.600;9.842;2024-03-25T17:10:30;6.45;;;0.90;;
45848;SDS011;31567;54.600;9.842;2024-03-25T17:14:10;5.65;;;1.15;;
45848;SDS011;31567;54.600;9.842;2024-03-25T17:17:50;4.00;;;0.95;;
45848;SDS011;31567;54.600;9.842;2024-03-25T17:21:30;6.68;;;1.48;;
45848;SDS011;31567;54.600;9.842;2024-03-25T17:25:10;3.15;;;1.25;;
45848;SDS011;31567;54.600;9.842;2024-03-25T17:28:50;8.57;;;1.50;;
45848;SDS011;31567;54.600;9.842;2024-03-25T17:32:29;7.57;;;3.17;;
45848;SDS011;31567;54.600;9.842;2024-03-25T17:36:09;10.80;;;4.50;;
45848;SDS011;31567;54.600;9.842;2024-03-25T17:39:49;12.27;;;6.10;;
45848;SDS011;31567;54.600;9.842;2024-03-25T17:43:28;13.82;;;7.15;;
45848;SDS011;31567;54.600;9.842;2024-03-25T17:47:08;16.20;;;7.93;;
45848;SDS011;31567;54.600;9.842;2024-03-25T17:50:54;20.13;;;9.13;;
45848;SDS011;31567;54.600;9.842;2024-03-25T17:54:37;17.08;;;9.23;;
45848;SDS011;31567;54.600;9.842;2024-03-25T17:58:17;16.67;;;9.70;;
45848;SDS011;31567;54.600;9.842;2024-03-25T18:01:56;13.30;;;7.85;;
45848;SDS011;31567;54.600;9.842;2024-03-25T18:05:36;11.23;;;6.05;;
45848;SDS011;31567;54.600;9.842;2024-03-25T18:09:15;9.77;;;3.95;;
45848;SDS011;31567;54.600;9.842;2024-03-25T18:12:55;6.15;;;2.53;;
45848;SDS011;31567;54.600;9.842;2024-03-25T18:16:34;8.27;;;1.55;;
45848;SDS011;31567;54.600;9.842;2024-03-25T18:20:14;7.32;;;1.40;;
45848;SDS011;31567;54.600;9.842;2024-03-25T18:23:54;6.25;;;1.50;;
45848;SDS011;31567;54.600;9.842;2024-03-25T18:27:33;4.22;;;1.10;;
45848;SDS011;31567;54.600;9.842;2024-03-25T18:31:13;3.40;;;1.00;;
45848;SDS011;31567;54.600;9.842;2024-03-25T18:34:52;4.32;;;1.17;;
45848;SDS011;31567;54.600;9.842;2024-03-25T18:38:32;8.52;;;1.27;;
45848;SDS011;31567;54.600;9.842;2024-03-25T18:42:12;3.83;;;1.10;;
45848;SDS011;31567;54.600;9.842;2024-03-25T18:45:52;5.65;;;2.58;;
45848;SDS011;31567;54.600;9.842;2024-03-25T18:49:31;7.43;;;2.97;;
45848;SDS011;31567;54.600;9.842;2024-03-25T18:53:11;5.90;;;2.58;;
45848;SDS011;31567;54.600;9.842;2024-03-25T18:56:50;6.32;;;2.58;;
45848;SDS011;31567;54.600;9.842;2024-03-25T19:00:30;10.98;;;3.33;;
45848;SDS011;31567;54.600;9.842;2024-03-25T19:04:09;7.45;;;3.47;;
45848;SDS011;31567;54.600;9.842;2024-03-25T19:07:49;9.95;;;3.80;;
45848;SDS011;31567;54.600;9.842;2024-03-25T19:11:29;11.13;;;7.10;;
45848;SDS011;31567;54.600;9.842;2024-03-25T19:15:08;14.57;;;5.97;;
45848;SDS011;31567;54.600;9.842;2024-03-25T19:18:48;13.18;;;5.88;;
45848;SDS011;31567;54.600;9.842;2024-03-25T19:22:27;10.32;;;4.70;;
45848;SDS011;31567;54.600;9.842;2024-03-25T19:26:07;4.03;;;2.03;;
45848;SDS011;31567;54.600;9.842;2024-03-25T19:29:46;7.85;;;2.90;;
45848;SDS011;31567;54.600;9.842;2024-03-25T19:33:26;25.92;;;11.52;;
45848;SDS011;31567;54.600;9.842;2024-03-25T19:37:05;18.38;;;7.32;;
45848;SDS011;31567;54.600;9.842;2024-03-25T19:40:45;18.45;;;6.60;;
45848;SDS011;31567;54.600;9.842;2024-03-25T19:44:25;5.30;;;2.22;;
45848;SDS011;31567;54.600;9.842;2024-03-25T19:48:04;6.90;;;2.08;;
45848;SDS011;31567;54.600;9.842;2024-03-25T19:51:45;5.28;;;2.35;;
45848;SDS011;31567;54.600;9.842;2024-03-25T19:55:24;6.03;;;2.22;;
45848;SDS011;31567;54.600;9.842;2024-03-25T19:59:04;7.20;;;2.25;;
45848;SDS011;31567;54.600;9.842;2024-03-25T20:02:43;7.28;;;2.90;;
45848;SDS011;31567;54.600;9.842;2024-03-25T20:06:23;9.00;;;2.80;;
45848;SDS011;31567;54.600;9.842;2024-03-25T20:10:03;5.20;;;2.45;;
45848;SDS011;31567;54.600;9.842;2024-03-25T20:13:44;5.95;;;2.15;;
45848;SDS011;31567;54.600;9.842;2024-03-25T20:17:23;6.75;;;2.55;;
45848;SDS011;31567;54.600;9.842;2024-03-25T20:21:03;7.30;;;2.95;;
45848;SDS011;31567;54.600;9.842;2024-03-25T20:24:43;10.95;;;3.92;;
45848;SDS011;31567;54.600;9.842;2024-03-25T20:28:22;6.45;;;3.40;;
45848;SDS011;31567;54.600;9.842;2024-03-25T20:32:02;8.63;;;2.90;;
45848;SDS011;31567;54.600;9.842;2024-03-25T20:35:42;9.98;;;3.38;;
45848;SDS011;31567;54.600;9.842;2024-03-25T20:39:22;14.02;;;3.30;;
45848;SDS011;31567;54.600;9.842;2024-03-25T20:43:02;12.02;;;3.83;;
45848;SDS011;31567;54.600;9.842;2024-03-25T20:46:42;8.63;;;3.22;;
45848;SDS011;31567;54.600;9.842;2024-03-25T20:50:22;8.88;;;3.00;;
45848;SDS011;31567;54.600;9.842;2024-03-25T20:54:01;9.50;;;3.28;;
45848;SDS011;31567;54.600;9.842;2024-03-25T20:57:41;7.50;;;3.30;;
45848;SDS011;31567;54.600;9.842;2024-03-25T21:01:20;8.35;;;3.28;;
45848;SDS011;31567;54.600;9.842;2024-03-25T21:05:00;10.90;;;3.72;;
45848;SDS011;31567;54.600;9.842;2024-03-25T21:08:41;8.77;;;3.63;;
45848;SDS011;31567;54.600;9.842;2024-03-25T21:12:22;10.77;;;3.20;;
45848;SDS011;31567;54.600;9.842;2024-03-25T21:16:01;6.32;;;2.60;;
45848;SDS011;31567;54.600;9.842;2024-03-25T21:19:41;6.32;;;2.42;;
45848;SDS011;31567;54.600;9.842;2024-03-25T21:23:21;6.18;;;2.50;;
45848;SDS011;31567;54.600;9.842;2024-03-25T21:27:01;8.50;;;2.90;;
45848;SDS011;31567;54.600;9.842;2024-03-25T21:30:40;9.10;;;3.90;;
45848;SDS011;31567;54.600;9.842;2024-03-25T21:34:20;12.13;;;5.47;;
45848;SDS011;31567;54.600;9.842;2024-03-25T21:37:59;13.40;;;5.60;;
45848;SDS011;31567;54.600;9.842;2024-03-25T21:41:39;11.23;;;3.70;;
45848;SDS011;31567;54.600;9.842;2024-03-25T21:45:20;12.20;;;3.95;;
45848;SDS011;31567;54.600;9.842;2024-03-25T21:49:00;7.32;;;2.75;;
45848;SDS011;31567;54.600;9.842;2024-03-25T21:52:39;12.07;;;2.42;;
45848;SDS011;31567;54.600;9.842;2024-03-25T21:56:20;5.47;;;2.15;;
45848;SDS011;31567;54.600;9.842;2024-03-25T22:00:00;11.55;;;2.55;;
45848;SDS011;31567;54.600;9.842;2024-03-25T22:03:39;6.43;;;2.90;;
45848;SDS011;31567;54.600;9.842;2024-03-25T22:07:19;7.88;;;2.90;;